createdAt,value
2018-06-14T00:02:02.270Z,2.43
2018-06-14T00:04:30.552Z,2.40
2018-06-14T00:06:58.921Z,2.33
2018-06-14T00:09:27.208Z,2.70
2018-06-14T00:11:55.494Z,2.43
2018-06-14T00:14:23.803Z,2.77
2018-06-14T00:16:53.257Z,2.23
2018-06-14T00:19:21.457Z,2.67
2018-06-14T00:21:49.689Z,3.00
2018-06-14T00:24:17.861Z,3.10
2018-06-14T00:26:46.168Z,2.53
2018-06-14T00:29:14.301Z,2.33
2018-06-14T00:31:42.449Z,3.53
2018-06-14T00:34:10.607Z,3.20
2018-06-14T00:36:39.903Z,2.97
2018-06-14T00:39:08.763Z,2.60
2018-06-14T00:41:37.345Z,2.87
2018-06-14T00:44:05.718Z,3.30
2018-06-14T00:46:34.003Z,3.57
2018-06-14T00:49:02.214Z,3.90
2018-06-14T00:51:30.425Z,3.93
2018-06-14T00:53:58.639Z,3.10
2018-06-14T00:56:26.905Z,4.43
2018-06-14T00:58:55.079Z,3.57
2018-06-14T01:01:23.261Z,4.00
2018-06-14T01:03:51.463Z,3.73
2018-06-14T01:06:19.715Z,3.10
2018-06-14T01:08:47.951Z,3.43
2018-06-14T01:11:16.170Z,3.70
2018-06-14T01:13:44.428Z,4.47
2018-06-14T01:16:12.812Z,3.37
2018-06-14T01:18:41.028Z,5.70
2018-06-14T01:21:09.203Z,3.23
2018-06-14T01:23:37.463Z,4.10
2018-06-14T01:26:05.891Z,3.40
2018-06-14T01:28:34.125Z,3.87
2018-06-14T01:31:02.341Z,4.47
2018-06-14T01:33:30.559Z,3.17
2018-06-14T01:35:59.906Z,4.93
2018-06-14T01:38:28.131Z,4.30
2018-06-14T01:40:56.371Z,4.37
2018-06-14T01:43:24.666Z,4.80
2018-06-14T01:45:52.968Z,3.83
2018-06-14T01:48:21.170Z,3.93
2018-06-14T01:50:49.366Z,4.27
2018-06-14T01:53:17.563Z,15.73
2018-06-14T01:55:45.872Z,4.93
2018-06-14T01:58:14.004Z,4.50
2018-06-14T02:00:42.209Z,5.90
2018-06-14T02:03:10.525Z,5.70
2018-06-14T02:05:38.800Z,4.93
2018-06-14T02:08:06.965Z,4.97
2018-06-14T02:10:35.161Z,7.90
2018-06-14T02:13:03.349Z,5.17
2018-06-14T02:15:32.671Z,5.13
2018-06-14T02:18:00.877Z,5.73
2018-06-14T02:20:29.623Z,10.87
2018-06-14T02:22:57.835Z,5.90
2018-06-14T02:25:26.161Z,6.33
2018-06-14T02:27:54.344Z,8.20
2018-06-14T02:30:22.704Z,6.60
2018-06-14T02:32:51.106Z,6.57
2018-06-14T02:35:19.580Z,8.37
2018-06-14T02:37:47.839Z,8.30
2018-06-14T02:40:16.159Z,5.87
2018-06-14T02:42:44.828Z,8.20
2018-06-14T02:45:14.250Z,6.10
2018-06-14T02:47:42.442Z,9.97
2018-06-14T02:50:10.961Z,7.23
2018-06-14T02:52:39.201Z,6.93
2018-06-14T02:55:08.164Z,7.85
2018-06-14T02:57:37.350Z,7.67
2018-06-14T03:00:05.986Z,7.80
2018-06-14T03:02:34.168Z,8.90
2018-06-14T03:05:02.412Z,7.30
2018-06-14T03:07:33.917Z,8.60
2018-06-14T03:10:04.047Z,8.73
2018-06-14T03:12:32.447Z,9.83
2018-06-14T03:15:00.869Z,7.43
2018-06-14T03:17:28.884Z,7.93
2018-06-14T03:19:57.297Z,10.63
2018-06-14T03:22:26.584Z,8.23
2018-06-14T03:24:54.837Z,10.77
2018-06-14T03:27:23.077Z,10.67
2018-06-14T03:29:51.288Z,10.07
2018-06-14T03:32:19.484Z,10.63
2018-06-14T03:34:47.697Z,11.60
2018-06-14T03:37:15.865Z,9.03
2018-06-14T03:39:44.057Z,11.00
2018-06-14T03:42:16.939Z,9.80
2018-06-14T03:44:45.142Z,9.60
2018-06-14T03:47:13.333Z,10.13
2018-06-14T03:49:42.446Z,11.87
2018-06-14T03:52:11.549Z,11.37
2018-06-14T03:54:39.741Z,10.50
2018-06-14T03:57:08.404Z,10.43
2018-06-14T03:59:36.707Z,9.73
2018-06-14T04:02:05.367Z,9.00
2018-06-14T04:04:33.562Z,9.77
2018-06-14T04:07:01.870Z,11.50
2018-06-14T04:09:30.068Z,10.27
2018-06-14T04:11:58.266Z,9.17
2018-06-14T04:14:26.612Z,12.73
2018-06-14T04:16:54.965Z,10.07
2018-06-14T04:19:23.239Z,11.13
2018-06-14T04:21:51.504Z,14.37
2018-06-14T04:24:19.710Z,10.87
2018-06-14T04:26:48.068Z,11.00
2018-06-14T04:29:17.105Z,12.13
2018-06-14T04:31:45.042Z,11.03
2018-06-14T04:34:13.296Z,11.60
2018-06-14T04:36:41.632Z,9.70
2018-06-14T04:39:10.748Z,11.77
2018-06-14T04:41:39.026Z,12.17
2018-06-14T04:44:07.263Z,9.97
2018-06-14T04:46:35.495Z,9.77
2018-06-14T04:49:03.725Z,12.23
2018-06-14T04:51:36.166Z,10.40
2018-06-14T04:54:04.410Z,9.80
2018-06-14T04:56:33.764Z,11.60
2018-06-14T04:59:01.959Z,12.67
2018-06-14T05:01:30.184Z,11.07
2018-06-14T05:03:58.403Z,11.83
2018-06-14T05:06:26.897Z,10.73
2018-06-14T05:08:55.126Z,10.80
2018-06-14T05:11:23.278Z,11.10
2018-06-14T05:13:51.551Z,12.00
2018-06-14T05:16:19.966Z,10.23
2018-06-14T05:18:48.234Z,10.33
2018-06-14T05:21:16.422Z,11.03
2018-06-14T05:23:44.608Z,11.40
2018-06-14T05:27:15.895Z,12.90
2018-06-14T05:29:44.072Z,11.90
2018-06-14T05:32:12.315Z,16.53
2018-06-14T05:34:40.493Z,10.37
2018-06-14T05:37:08.649Z,9.97
2018-06-14T05:39:36.840Z,12.03
2018-06-14T05:42:05.055Z,11.57
2018-06-14T05:44:33.286Z,11.70
2018-06-14T05:47:01.774Z,11.57
2018-06-14T05:49:29.950Z,9.17
2018-06-14T05:51:58.231Z,11.10
2018-06-14T05:54:26.436Z,12.43
2018-06-14T05:56:54.846Z,12.00
2018-06-14T05:59:23.018Z,11.47
2018-06-14T06:01:51.233Z,10.77
2018-06-14T06:04:19.417Z,11.17
2018-06-14T06:06:47.730Z,10.53
2018-06-14T06:09:15.996Z,16.20
2018-06-14T06:11:44.212Z,10.90
2018-06-14T06:14:12.463Z,12.07
2018-06-14T06:16:40.420Z,10.03
2018-06-14T06:19:08.640Z,10.00
2018-06-14T06:21:37.813Z,12.17
2018-06-14T06:24:06.108Z,8.17
2018-06-14T06:26:34.470Z,9.60
2018-06-14T06:29:02.751Z,9.67
2018-06-14T06:31:30.966Z,9.00
2018-06-14T06:33:59.129Z,10.33
2018-06-14T06:36:29.437Z,11.00
2018-06-14T06:38:57.604Z,8.50
2018-06-14T06:41:25.874Z,7.87
2018-06-14T06:43:54.127Z,8.00
2018-06-14T06:46:22.300Z,12.25
2018-06-14T06:48:50.481Z,9.43
2018-06-14T06:51:18.622Z,10.30
2018-06-14T06:53:46.798Z,8.40
2018-06-14T06:56:14.994Z,9.30
2018-06-14T06:58:44.228Z,7.43
2018-06-14T07:01:12.427Z,8.77
2018-06-14T07:03:40.591Z,6.87
2018-06-14T07:06:09.027Z,6.07
2018-06-14T07:08:37.548Z,6.73
2018-06-14T07:11:05.803Z,5.13
2018-06-14T07:13:34.038Z,5.67
2018-06-14T07:16:02.295Z,6.57
2018-06-14T07:18:30.572Z,7.53
2018-06-14T07:20:58.935Z,7.30
2018-06-14T07:23:27.145Z,5.67
2018-06-14T07:25:56.415Z,5.03
2018-06-14T07:28:24.656Z,6.77
2018-06-14T07:30:52.865Z,8.07
2018-06-14T07:33:21.133Z,8.57
2018-06-14T07:35:49.698Z,7.30
2018-06-14T07:38:17.881Z,7.93
2018-06-14T07:40:46.107Z,7.23
2018-06-14T07:43:14.368Z,7.27
2018-06-14T07:45:42.820Z,5.90
2018-06-14T07:48:11.008Z,4.23
2018-06-14T07:50:39.332Z,4.77
2018-06-14T07:53:14.040Z,6.07
2018-06-14T07:55:42.267Z,5.67
2018-06-14T07:58:10.494Z,6.03
2018-06-14T08:00:38.686Z,6.50
2018-06-14T08:03:06.832Z,5.43
2018-06-14T08:05:35.070Z,9.53
2018-06-14T08:08:03.359Z,4.57
2018-06-14T08:10:31.591Z,7.43
2018-06-14T08:12:59.791Z,5.60
2018-06-14T08:15:28.041Z,6.60
2018-06-14T08:17:56.246Z,6.90
2018-06-14T08:20:24.454Z,8.00
2018-06-14T08:22:52.809Z,7.20
2018-06-14T08:25:20.981Z,8.50
2018-06-14T08:27:49.229Z,8.63
2018-06-14T08:30:17.149Z,9.20
2018-06-14T08:32:45.312Z,7.70
2018-06-14T08:35:13.645Z,5.53
2018-06-14T08:37:41.870Z,9.07
2018-06-14T08:40:10.066Z,5.87
2018-06-14T08:42:38.276Z,5.67
2018-06-14T08:45:07.526Z,5.40
2018-06-14T08:47:35.943Z,6.03
2018-06-14T08:50:04.312Z,6.97
2018-06-14T08:52:32.530Z,8.17
2018-06-14T08:55:00.993Z,5.07
2018-06-14T08:57:29.230Z,4.33
2018-06-14T08:59:57.525Z,6.60
2018-06-14T09:02:25.535Z,6.40
2018-06-14T09:04:53.935Z,7.23
2018-06-14T09:07:22.144Z,5.63
2018-06-14T09:09:50.358Z,4.87
2018-06-14T09:12:18.536Z,5.60
2018-06-14T09:14:46.743Z,7.27
2018-06-14T09:17:15.079Z,5.83
2018-06-14T09:19:43.267Z,7.13
2018-06-14T09:22:11.482Z,5.10
2018-06-14T09:24:39.710Z,4.07
2018-06-14T09:27:07.973Z,5.63
2018-06-14T09:29:36.211Z,5.37
2018-06-14T09:32:04.471Z,6.50
2018-06-14T09:34:32.760Z,6.63
2018-06-14T09:37:01.137Z,7.40
2018-06-14T09:39:29.126Z,5.70
2018-06-14T09:41:57.354Z,4.40
2018-06-14T09:44:25.610Z,5.30
2018-06-14T09:46:55.952Z,6.20
2018-06-14T09:49:24.165Z,5.73
2018-06-14T09:51:52.336Z,5.03
2018-06-14T09:54:20.548Z,6.03
2018-06-14T09:56:48.957Z,6.90
2018-06-14T09:59:17.147Z,6.70
2018-06-14T10:01:45.370Z,3.77
2018-06-14T10:04:13.535Z,5.87
2018-06-14T10:06:41.846Z,3.90
2018-06-14T10:09:11.797Z,5.53
2018-06-14T10:11:39.985Z,9.50
2018-06-14T10:14:08.609Z,6.57
2018-06-14T10:16:37.564Z,4.47
2018-06-14T10:19:05.946Z,4.90
2018-06-14T10:21:34.097Z,5.73
2018-06-14T10:24:02.248Z,7.17
2018-06-14T10:26:30.516Z,8.30
2018-06-14T10:28:58.663Z,10.33
2018-06-14T10:31:26.807Z,7.13
2018-06-14T10:33:55.003Z,6.77
2018-06-14T10:36:23.344Z,5.60
2018-06-14T10:38:51.573Z,8.27
2018-06-14T10:41:19.774Z,5.83
2018-06-14T10:43:47.951Z,11.67
2018-06-14T10:46:16.285Z,6.87
2018-06-14T10:48:44.463Z,4.67
2018-06-14T10:51:12.656Z,5.97
2018-06-14T10:53:40.853Z,4.10
2018-06-14T10:56:09.246Z,5.20
2018-06-14T10:58:37.760Z,3.80
2018-06-14T11:01:06.012Z,4.77
2018-06-14T11:03:34.203Z,4.83
2018-06-14T11:06:02.394Z,5.60
2018-06-14T11:08:30.533Z,6.80
2018-06-14T11:10:58.738Z,6.73
2018-06-14T11:13:26.968Z,6.90
2018-06-14T11:15:55.357Z,6.33
2018-06-14T11:18:23.564Z,4.90
2018-06-14T11:20:51.802Z,5.87
2018-06-14T11:23:19.970Z,8.60
2018-06-14T11:25:48.288Z,6.00
2018-06-14T11:28:16.517Z,4.83
2018-06-14T11:30:45.025Z,10.07
2018-06-14T11:33:13.417Z,11.07
2018-06-14T11:35:41.589Z,4.37
2018-06-14T11:38:09.748Z,6.70
2018-06-14T11:40:37.934Z,7.63
2018-06-14T11:43:06.116Z,5.77
2018-06-14T11:45:34.437Z,5.43
2018-06-14T11:48:02.700Z,5.63
2018-06-14T11:50:30.889Z,7.10
2018-06-14T11:52:59.103Z,5.50
2018-06-14T11:55:27.383Z,5.33
2018-06-14T11:57:55.654Z,6.93
2018-06-14T12:00:23.869Z,8.63
2018-06-14T12:02:52.100Z,6.90
2018-06-14T12:05:21.530Z,5.47
2018-06-14T12:07:49.811Z,5.70
2018-06-14T12:10:18.055Z,7.43
2018-06-14T12:12:46.255Z,7.63
2018-06-14T12:15:14.737Z,7.20
2018-06-14T12:17:56.942Z,6.60
2018-06-14T12:20:25.195Z,6.97
2018-06-14T12:22:53.357Z,7.93
2018-06-14T12:25:21.616Z,9.40
2018-06-14T12:27:49.815Z,6.27
2018-06-14T12:30:17.989Z,7.87
2018-06-14T12:32:46.140Z,6.87
2018-06-14T12:35:14.874Z,5.43
2018-06-14T12:37:43.082Z,5.03
2018-06-14T12:40:11.247Z,5.40
2018-06-14T12:42:39.474Z,4.87
2018-06-14T12:45:08.283Z,7.83
2018-06-14T12:47:37.055Z,7.30
2018-06-14T12:50:05.233Z,6.97
2018-06-14T12:52:33.426Z,8.10
2018-06-14T12:55:01.833Z,5.93
2018-06-14T12:57:30.119Z,7.27
2018-06-14T12:59:58.287Z,10.63
2018-06-14T13:02:27.171Z,9.70
2018-06-14T13:04:55.789Z,6.57
2018-06-14T13:07:24.089Z,7.37
2018-06-14T13:09:52.397Z,6.73
2018-06-14T13:12:20.587Z,6.77
2018-06-14T13:14:48.790Z,5.90
2018-06-14T13:17:17.020Z,7.10
2018-06-14T13:19:45.651Z,10.03
2018-06-14T13:22:13.907Z,6.63
2018-06-14T13:24:43.145Z,9.80
2018-06-14T13:27:12.890Z,6.47
2018-06-14T13:29:41.481Z,10.43
2018-06-14T13:32:09.831Z,8.20
2018-06-14T13:34:39.660Z,7.03
2018-06-14T13:37:07.859Z,7.50
2018-06-14T13:39:37.042Z,8.63
2018-06-14T13:42:05.291Z,8.70
2018-06-14T13:44:33.315Z,10.37
2018-06-14T13:47:01.759Z,8.93
2018-06-14T13:49:30.156Z,5.47
2018-06-14T13:51:58.411Z,8.40
2018-06-14T13:54:27.122Z,9.40
2018-06-14T13:56:55.396Z,8.37
2018-06-14T13:59:23.611Z,10.53
2018-06-14T14:01:51.849Z,6.80
2018-06-14T14:04:20.030Z,8.30
2018-06-14T14:06:48.302Z,6.83
2018-06-14T14:09:16.481Z,6.87
2018-06-14T14:11:44.648Z,7.37
2018-06-14T14:14:12.868Z,9.77
2018-06-14T14:16:40.878Z,6.77
2018-06-14T14:19:09.159Z,5.93
2018-06-14T14:21:37.468Z,8.13
2018-06-14T14:24:05.931Z,8.77
2018-06-14T14:26:34.320Z,10.57
2018-06-14T14:29:02.525Z,6.90
2018-06-14T14:31:30.729Z,10.57
2018-06-14T14:33:58.896Z,5.93
2018-06-14T14:36:28.193Z,6.60
2018-06-14T14:38:56.480Z,8.67
2018-06-14T14:41:24.892Z,7.77
2018-06-14T14:43:53.056Z,9.53
2018-06-14T14:46:21.229Z,6.47
2018-06-14T14:48:49.542Z,8.90
2018-06-14T14:51:17.953Z,7.80
2018-06-14T14:53:46.248Z,8.53
2018-06-14T14:56:14.673Z,8.53
2018-06-14T14:58:43.060Z,7.73
2018-06-14T15:01:11.376Z,8.33
2018-06-14T15:03:39.728Z,9.67
2018-06-14T15:06:08.367Z,7.73
2018-06-14T15:08:36.687Z,9.10
2018-06-14T15:11:04.944Z,8.00
2018-06-14T15:13:33.234Z,9.83
2018-06-14T15:16:01.589Z,8.20
2018-06-14T15:18:29.583Z,8.73
2018-06-14T15:20:57.768Z,11.03
2018-06-14T15:23:26.546Z,8.27
2018-06-14T15:25:54.899Z,8.90
2018-06-14T15:28:23.120Z,8.33
2018-06-14T15:30:51.310Z,8.93
2018-06-14T15:33:19.537Z,11.07
2018-06-14T15:35:47.836Z,8.43
2018-06-14T15:38:16.042Z,8.97
2018-06-14T15:40:44.403Z,8.53
2018-06-14T15:43:12.673Z,10.23
2018-06-14T15:45:41.955Z,8.17
2018-06-14T15:48:10.166Z,8.20
2018-06-14T15:50:38.393Z,7.53
2018-06-14T15:53:06.581Z,7.63
2018-06-14T15:56:01.660Z,7.37
2018-06-14T15:58:30.917Z,8.87
2018-06-14T16:00:59.133Z,7.93
2018-06-14T16:03:27.325Z,8.10
2018-06-14T16:05:55.618Z,8.27
2018-06-14T16:08:23.892Z,8.60
2018-06-14T16:10:52.491Z,8.30
2018-06-14T16:13:21.213Z,9.13
2018-06-14T16:15:49.546Z,9.10
2018-06-14T16:18:17.817Z,8.97
2018-06-14T16:23:44.165Z,7.97
2018-06-14T16:26:12.361Z,7.90
2018-06-14T16:28:40.523Z,7.70
2018-06-14T16:31:08.824Z,8.50
2018-06-14T16:33:37.323Z,8.00
2018-06-14T16:36:05.401Z,7.80
2018-06-14T16:38:33.615Z,7.30
2018-06-14T16:41:02.558Z,8.00
2018-06-14T16:43:30.739Z,7.40
2018-06-14T16:45:59.214Z,7.07
2018-06-14T16:48:27.441Z,6.93
2018-06-14T16:50:55.712Z,7.93
2018-06-14T16:53:23.978Z,7.10
2018-06-14T16:55:52.200Z,7.60
2018-06-14T16:58:20.476Z,6.67
2018-06-14T17:00:48.477Z,6.63
2018-06-14T17:03:17.219Z,6.37
2018-06-14T17:05:45.235Z,7.10
2018-06-14T17:08:13.584Z,7.00
2018-06-14T17:10:41.907Z,7.27
2018-06-14T17:13:10.106Z,6.20
2018-06-14T17:15:38.441Z,6.40
2018-06-14T17:18:06.666Z,5.57
2018-06-14T17:20:34.907Z,6.40
2018-06-14T17:23:03.172Z,5.97
2018-06-14T17:25:31.557Z,5.90
2018-06-14T17:27:59.851Z,6.63
2018-06-14T17:30:28.060Z,5.50
2018-06-14T17:32:56.240Z,5.37
2018-06-14T17:35:25.496Z,6.17
2018-06-14T17:37:53.684Z,5.67
2018-06-14T17:40:21.908Z,5.90
2018-06-14T17:42:50.163Z,5.17
2018-06-14T17:45:18.580Z,5.77
2018-06-14T17:47:46.911Z,5.60
2018-06-14T17:50:15.092Z,6.23
2018-06-14T17:52:43.043Z,5.80
2018-06-14T17:55:11.278Z,5.53
2018-06-14T17:57:39.597Z,6.33
2018-06-14T18:00:07.836Z,5.57
2018-06-14T18:02:36.123Z,7.37
2018-06-14T18:05:05.198Z,7.17
2018-06-14T18:07:33.027Z,6.37
2018-06-14T18:10:01.091Z,6.50
2018-06-14T18:12:29.296Z,5.97
2018-06-14T18:14:57.688Z,7.37
2018-06-14T18:17:25.890Z,6.57
2018-06-14T18:19:54.097Z,6.47
2018-06-14T18:22:22.277Z,6.37
2018-06-14T18:24:50.574Z,6.80
2018-06-14T18:27:18.829Z,7.27
2018-06-14T18:29:47.114Z,7.03
2018-06-14T18:32:15.318Z,7.50
2018-06-14T18:34:43.537Z,7.07
2018-06-14T18:37:11.889Z,8.20
2018-06-14T18:39:40.118Z,6.70
2018-06-14T18:42:08.388Z,8.60
2018-06-14T18:44:36.904Z,7.97
2018-06-14T18:47:06.010Z,7.27
2018-06-14T18:49:34.010Z,7.80
2018-06-14T18:52:02.299Z,8.27
2018-06-14T18:54:30.640Z,7.83
2018-06-14T18:56:59.978Z,8.33
2018-06-14T18:59:28.205Z,7.63
2018-06-14T19:01:56.416Z,7.93
2018-06-14T19:04:24.843Z,8.00
2018-06-14T19:06:53.119Z,9.47
2018-06-14T19:09:22.372Z,8.33
2018-06-14T19:11:50.704Z,8.47
2018-06-14T19:14:18.991Z,8.43
2018-06-14T19:16:47.460Z,7.67
2018-06-14T19:19:15.694Z,8.13
2018-06-14T19:21:43.917Z,7.60
2018-06-14T19:24:11.914Z,8.10
2018-06-14T19:26:40.349Z,6.77
2018-06-14T19:29:08.634Z,6.13
2018-06-14T19:31:36.975Z,5.83
2018-06-14T19:34:05.682Z,6.40
2018-06-14T19:36:34.078Z,6.27
2018-06-14T19:39:02.330Z,6.50
2018-06-14T19:41:30.524Z,5.90
2018-06-14T19:43:58.736Z,7.20
2018-06-14T19:46:27.141Z,7.60
2018-06-14T19:48:55.469Z,8.77
2018-06-14T19:51:23.750Z,11.77
2018-06-14T19:53:51.972Z,6.43
2018-06-14T19:56:20.267Z,7.63
2018-06-14T19:58:48.504Z,8.43
2018-06-14T20:01:17.768Z,7.47
2018-06-14T20:03:46.027Z,8.67
2018-06-14T20:06:14.244Z,7.17
2018-06-14T20:08:42.422Z,7.20
2018-06-14T20:11:12.756Z,9.30
2018-06-14T20:13:41.019Z,9.73
2018-06-14T20:16:09.245Z,6.13
2018-06-14T20:18:37.206Z,7.77
2018-06-14T20:21:05.508Z,6.93
2018-06-14T20:23:33.697Z,8.90
2018-06-14T20:26:01.988Z,9.80
2018-06-14T20:28:30.272Z,9.07
2018-06-14T20:30:58.526Z,8.57
2018-06-14T20:33:27.158Z,9.53
2018-06-14T20:35:55.533Z,7.10
2018-06-14T20:38:23.760Z,9.70
2018-06-14T20:40:52.040Z,10.10
2018-06-14T20:43:20.238Z,10.13
2018-06-14T20:45:48.582Z,7.17
2018-06-14T20:48:16.751Z,7.37
2018-06-14T20:50:44.941Z,7.23
2018-06-14T20:53:13.191Z,9.13
2018-06-14T20:55:41.491Z,10.27
2018-06-14T20:58:09.706Z,9.60
2018-06-14T21:00:37.892Z,9.70
2018-06-14T21:03:06.117Z,8.03
2018-06-14T21:05:34.510Z,12.63
2018-06-14T21:08:02.802Z,7.13
2018-06-14T21:10:31.291Z,7.63
2018-06-14T21:12:59.483Z,9.00
2018-06-14T21:15:27.733Z,8.50
2018-06-14T21:17:55.987Z,8.30
2018-06-14T21:20:24.238Z,9.27
2018-06-14T21:22:52.839Z,6.70
2018-06-14T21:25:21.172Z,7.90
2018-06-14T21:27:49.456Z,9.03
2018-06-14T21:30:17.661Z,12.07
2018-06-14T21:32:45.963Z,7.97
2018-06-14T21:35:14.476Z,10.50
2018-06-14T21:37:42.675Z,9.50
2018-06-14T21:40:10.868Z,8.20
2018-06-14T21:42:39.142Z,9.70
2018-06-14T21:45:07.700Z,9.75
2018-06-14T21:47:35.925Z,10.03
2018-06-14T21:50:04.167Z,9.13
2018-06-14T21:52:32.396Z,9.47
2018-06-14T21:55:00.784Z,12.70
2018-06-14T21:57:29.033Z,12.57
2018-06-14T21:59:57.293Z,10.83
2018-06-14T22:02:25.479Z,10.07
2018-06-14T22:04:53.864Z,9.73
2018-06-14T22:07:22.051Z,8.23
2018-06-14T22:09:50.237Z,9.10
2018-06-14T22:12:18.461Z,13.23
2018-06-14T22:14:46.744Z,11.63
2018-06-14T22:17:14.967Z,8.20
2018-06-14T22:19:43.165Z,10.43
2018-06-14T22:22:11.341Z,8.60
2018-06-14T22:24:39.466Z,9.47
2018-06-14T22:27:07.912Z,11.33
2018-06-14T22:29:35.863Z,10.73
2018-06-14T22:32:04.045Z,12.10
2018-06-14T22:34:43.730Z,11.27
2018-06-14T22:37:11.992Z,13.10
2018-06-14T22:39:39.944Z,12.13
2018-06-14T22:42:08.066Z,9.60
2018-06-14T22:44:36.232Z,12.33
2018-06-14T22:47:04.532Z,11.73
2018-06-14T22:49:32.677Z,10.63
2018-06-14T22:52:14.852Z,10.00
2018-06-14T22:54:43.067Z,11.20
2018-06-14T22:57:11.243Z,12.40
2018-06-14T22:59:39.422Z,12.90
2018-06-14T23:02:07.592Z,12.30
2018-06-14T23:04:35.779Z,11.33
2018-06-14T23:07:04.019Z,11.73
2018-06-14T23:10:42.940Z,10.80
2018-06-14T23:13:14.387Z,11.77
2018-06-14T23:15:42.580Z,12.03
2018-06-14T23:18:10.767Z,10.43
2018-06-14T23:20:38.896Z,9.87
2018-06-14T23:23:07.542Z,9.70
2018-06-14T23:25:36.312Z,10.47
2018-06-14T23:28:04.551Z,11.73
2018-06-14T23:30:32.832Z,9.97
2018-06-14T23:33:01.021Z,9.37
2018-06-14T23:35:29.468Z,10.13
2018-06-14T23:37:57.746Z,10.20
2018-06-14T23:40:26.693Z,9.30
2018-06-14T23:42:54.891Z,9.33
2018-06-14T23:45:23.175Z,11.17
2018-06-14T23:47:51.609Z,10.63
2018-06-14T23:50:19.797Z,11.97
2018-06-14T23:52:47.994Z,11.80
2018-06-14T23:55:16.298Z,11.40
2018-06-14T23:57:44.505Z,11.40
